Terminal Aerodrome Forecast
Issued by NWS Cleveland, OH

Home | Current Version | Previous Version | Graphics & Text | Print | Product List | Glossary On
Versions: 1 2 3 4 5 6 7 8 9 10 11 12 13 14 15 16 17
563
FTUS41 KCLE 251723
TAFYNG
TAF
KYNG 251723Z 2518/2618 29008KT P6SM SCT030 BKN045
     FM252100 03008KT 6SM HZ SCT025 BKN040
      TEMPO 2521/2601 4SM HZ BKN025
     FM260100 07006KT 4SM BR SCT010 BKN035
     FM261600 14010KT 6SM HZ VCSH SCT020 BKN045=

USA.gov is the U.S. government's official web portal to all federal, state and local government web resources and services.